Historique des mesures à Cassis (13260), France
Quotidien Résumé Fevrier 16, 2018 Unités:  Métrique/US    US   Métrique
« Précédent (Jour)
Suivant (Jour) »
Quotidien Hebdomadaire Mensuel Annuel Période au choix
  Maximum: Minimum: Moyenne:
Température: 32 °F /  TemperatureC °C 46.6 °F /  8.1 °C 51.4 °F /  10.8 °C
Point de rosée: 32 °F /  DewpointC °C 41.4 °F /  5.2 °C 45.3 °F /  7.4 °C
Humidité: Humidity % 72 % 75 %
Vitesse du vent: WindSpeedKMH mph /  0 km/h - 0.3 mph /  0.5 km/h
Rafales: WindSpeedGustKMH mph /  0 km/h - -
Vent:- - SE
Pression: 0 in /  PressurehPa hPa 30.1 in /  1017.8 hPa -
Précipitations: 0 in /  0.0 mm    
Historical Graphs
 
 
Mesures pour : Fevrier 16, 2018
Heure Temperature Point de rosée Pression Vent Vitesse du vent Rafales Humidité Pluie (par heure) Conditions
32 °F /  TemperatureC °C 32 °F /  DewpointC °C 0 in /  PressurehPa hPa Calm     Humidity % 0 in /  HourlyPrecipMM mm SoftwareType W/m2
00:12 49.3 °F /  9.6 °C 42.3 °F /  5.7 °C 30.1 in /  1019.9 hPa Calm     77 % 0 in /  0.0 mm open2300-1.11 W/m2
01:12 48.4 °F /  9.1 °C 42.1 °F /  5.6 °C 30.1 in /  1019.5 hPa Calm     79 % 0 in /  0.0 mm open2300-1.11 W/m2
02:12 47.5 °F /  8.6 °C 41.5 °F /  5.3 °C 30.1 in /  1019.5 hPa Calm     80 % 0 in /  0.0 mm open2300-1.11 W/m2
03:12 48.4 °F /  9.1 °C 42.8 °F /  6.0 °C 30.1 in /  1019.9 hPa Calm     81 % 0 in /  0.0 mm open2300-1.11 W/m2
04:12 48 °F /  8.9 °C 42.4 °F /  5.8 °C 30.1 in /  1019.9 hPa Calm     81 % 0 in /  0.0 mm open2300-1.11 W/m2
05:12 47.5 °F /  8.6 °C 41.9 °F /  5.5 °C 30.1 in /  1019.5 hPa Calm     81 % 0 in /  0.0 mm open2300-1.11 W/m2
06:12 46.9 °F /  8.3 °C 41.7 °F /  5.4 °C 30.1 in /  1019.5 hPa Calm     82 % 0 in /  0.0 mm open2300-1.11 W/m2
07:12 46.6 °F /  8.1 °C 41.4 °F /  5.2 °C 30.1 in /  1019.9 hPa Calm     82 % 0 in /  0.0 mm open2300-1.11 W/m2
08:12 47.7 °F /  8.7 °C 42.4 °F /  5.8 °C 30.1 in /  1019.9 hPa Calm     82 % 0 in /  0.0 mm open2300-1.11 W/m2
09:12 50.9 °F /  10.5 °C 45.3 °F /  7.4 °C 30.1 in /  1020.2 hPa Calm     81 % 0 in /  0.0 mm open2300-1.11 W/m2
10:12 53.2 °F /  11.8 °C 46.6 °F /  8.1 °C 30.1 in /  1020.5 hPa Calm     78 % 0 in /  0.0 mm open2300-1.11 W/m2
12:12 56.8 °F /  13.8 °C 48.2 °F /  9.0 °C 30.1 in /  1020.5 hPa SE 3.2 mph /  5.1 km/h 3.2 mph /  5.1 km/h 73 % 0 in /  0.0 mm open2300-1.11 W/m2
13:12 57.7 °F /  14.3 °C 48.7 °F /  9.3 °C 30.1 in /  1019.9 hPa Calm   2.6 mph /  4.2 km/h 72 % 0 in /  0.0 mm open2300-1.11 W/m2
14:12 57.9 °F /  14.4 °C 48.9 °F /  9.4 °C 30.1 in /  1019.2 hPa ESE 4.0 mph /  6.4 km/h 4.0 mph /  6.4 km/h 72 % 0 in /  0.0 mm open2300-1.11 W/m2
15:12 57.6 °F /  14.2 °C 49.3 °F /  9.6 °C 30.1 in /  1018.5 hPa Calm   2.9 mph /  4.7 km/h 74 % 0 in /  0.0 mm open2300-1.11 W/m2
16:12 57.4 °F /  14.1 °C 49.5 °F /  9.7 °C 30.1 in /  1018.2 hPa Calm   2.6 mph /  4.2 km/h 75 % 0 in /  0.0 mm open2300-1.11 W/m2
17:12 56.7 °F /  13.7 °C 49.5 °F /  9.7 °C 30.1 in /  1017.8 hPa Calm     77 % 0 in /  0.0 mm open2300-1.11 W/m2
18:12 55.6 °F /  13.1 °C 49.1 °F /  9.5 °C 30.1 in /  1017.8 hPa Calm     79 % 0 in /  0.0 mm open2300-1.11 W/m2
20:12 54.5 °F /  12.5 °C 48.7 °F /  9.3 °C 30.1 in /  1018.2 hPa Calm     81 % 0 in /  0.0 mm open2300-1.11 W/m2
21:12 54.5 °F /  12.5 °C 48.7 °F /  9.3 °C 30.1 in /  1018.2 hPa Calm     81 % 0 in /  0.0 mm open2300-1.11 W/m2
22:12 54.7 °F /  12.6 °C 48.9 °F /  9.4 °C 30.1 in /  1017.8 hPa Calm   1.4 mph /  2.3 km/h 81 % 0 in /  0.0 mm open2300-1.11 W/m2
23:12 55 °F /  12.8 °C 48.9 °F /  9.4 °C 30.1 in /  1018.2 hPa Calm     80 % 0 in /  0.0 mm open2300-1.11 W/m2
Observations météo à CASSIS
WU-History script by Weather Underground - 1 mb